createdAt,value
2019-01-04T00:00:41.775Z,47.23
2019-01-04T00:03:11.170Z,41.88
2019-01-04T00:05:40.319Z,40.52
2019-01-04T00:08:09.491Z,36.50
2019-01-04T00:10:38.668Z,39.40
2019-01-04T00:13:08.328Z,40.08
2019-01-04T00:15:37.495Z,40.90
2019-01-04T00:18:06.670Z,45.58
2019-01-04T00:20:35.819Z,34.45
2019-01-04T00:23:04.992Z,42.35
2019-01-04T00:25:34.535Z,37.40
2019-01-04T00:28:04.150Z,43.23
2019-01-04T00:30:33.339Z,35.43
2019-01-04T00:33:02.582Z,45.15
2019-01-04T00:35:31.807Z,40.50
2019-01-04T00:38:00.982Z,47.00
2019-01-04T00:40:30.158Z,44.40
2019-01-04T00:42:59.327Z,35.65
2019-01-04T00:45:28.967Z,40.50
2019-01-04T00:47:58.142Z,36.13
2019-01-04T00:50:27.290Z,39.83
2019-01-04T00:52:56.470Z,38.55
2019-01-04T00:55:40.762Z,35.10
2019-01-04T00:58:44.943Z,32.60
2019-01-04T01:01:22.933Z,35.15
2019-01-04T01:03:57.967Z,31.33
2019-01-04T01:06:48.222Z,41.08
2019-01-04T01:09:26.249Z,33.23
2019-01-04T01:12:15.578Z,37.28
2019-01-04T01:15:03.131Z,34.05
2019-01-04T01:17:50.498Z,29.92
2019-01-04T01:20:56.414Z,37.03
2019-01-04T01:23:28.866Z,38.80
2019-01-04T01:26:04.127Z,37.13
2019-01-04T01:28:53.142Z,36.10
2019-01-04T01:31:57.130Z,37.75
2019-01-04T01:34:35.422Z,35.60
2019-01-04T01:37:25.754Z,37.65
2019-01-04T01:40:04.350Z,33.23
2019-01-04T01:43:06.327Z,39.23
2019-01-04T01:45:45.049Z,34.73
2019-01-04T01:48:14.678Z,35.95
2019-01-04T01:50:55.874Z,30.43
2019-01-04T01:53:28.666Z,31.53
2019-01-04T01:55:57.866Z,33.55
2019-01-04T01:58:28.648Z,33.03
2019-01-04T02:00:57.886Z,31.15
2019-01-04T02:03:27.274Z,31.42
2019-01-04T02:05:56.430Z,35.38
2019-01-04T02:08:26.096Z,35.85
2019-01-04T02:10:55.279Z,31.80
2019-01-04T02:13:24.423Z,36.35
2019-01-04T02:15:53.574Z,35.23
2019-01-04T02:18:22.751Z,32.43
2019-01-04T02:20:51.905Z,30.08
2019-01-04T02:23:21.055Z,24.03
2019-01-04T02:25:50.246Z,26.05
2019-01-04T02:28:20.563Z,21.77
2019-01-04T02:30:49.783Z,25.27
2019-01-04T02:33:18.982Z,23.05
2019-01-04T02:35:48.229Z,23.98
2019-01-04T02:38:17.494Z,24.03
2019-01-04T02:40:46.875Z,18.77
2019-01-04T02:43:16.099Z,30.63
2019-01-04T02:45:45.273Z,27.40
2019-01-04T02:48:14.502Z,22.27
2019-01-04T02:50:43.644Z,22.40
2019-01-04T02:53:12.817Z,24.80
2019-01-04T02:55:42.471Z,16.93
2019-01-04T02:58:11.619Z,21.83
2019-01-04T03:00:41.482Z,22.07
2019-01-04T03:03:10.714Z,22.57
2019-01-04T03:05:40.160Z,20.73
2019-01-04T03:08:09.388Z,21.03
2019-01-04T03:10:38.555Z,22.63
2019-01-04T03:13:07.708Z,18.23
2019-01-04T03:15:36.871Z,22.43
2019-01-04T03:18:06.055Z,25.60
2019-01-04T03:20:35.847Z,19.20
2019-01-04T03:23:05.027Z,24.07
2019-01-04T03:25:34.210Z,19.77
2019-01-04T03:28:03.371Z,27.97
2019-01-04T03:30:32.589Z,27.00
2019-01-04T03:33:01.776Z,29.43
2019-01-04T03:35:30.999Z,23.73
2019-01-04T03:38:00.151Z,28.85
2019-01-04T03:40:29.395Z,26.27
2019-01-04T03:42:58.542Z,31.40
2019-01-04T03:45:27.701Z,32.80
2019-01-04T03:47:56.874Z,28.80
2019-01-04T03:50:26.102Z,31.73
2019-01-04T03:52:55.258Z,33.40
2019-01-04T03:55:24.464Z,38.37
2019-01-04T03:57:53.610Z,28.17
2019-01-04T04:00:22.782Z,28.53
2019-01-04T04:02:52.250Z,27.27
2019-01-04T04:05:21.402Z,27.87
2019-01-04T04:07:50.580Z,31.53
2019-01-04T04:10:20.470Z,21.23
2019-01-04T04:12:49.637Z,21.03
2019-01-04T04:15:18.802Z,20.92
2019-01-04T04:17:47.995Z,21.10
2019-01-04T04:20:17.145Z,23.65
2019-01-04T04:22:46.378Z,24.30
2019-01-04T04:25:15.552Z,17.15
2019-01-04T04:27:44.779Z,24.23
2019-01-04T04:30:14.446Z,23.00
2019-01-04T04:32:43.620Z,21.17
2019-01-04T04:35:12.832Z,20.80
2019-01-04T04:37:42.324Z,21.03
2019-01-04T04:40:11.507Z,19.65
2019-01-04T04:42:40.731Z,21.57
2019-01-04T04:45:09.954Z,19.90
2019-01-04T04:47:39.125Z,17.90
2019-01-04T04:50:08.278Z,17.90
2019-01-04T04:52:37.439Z,18.27
2019-01-04T04:55:06.632Z,19.57
2019-01-04T04:57:35.868Z,20.82
2019-01-04T05:00:07.479Z,26.60
2019-01-04T05:02:36.646Z,20.75
2019-01-04T05:05:05.812Z,25.75
2019-01-04T05:07:34.997Z,24.75
2019-01-04T05:10:04.687Z,21.35
2019-01-04T05:12:33.927Z,23.57
2019-01-04T05:15:03.099Z,24.67
2019-01-04T05:17:32.268Z,23.18
2019-01-04T05:20:01.765Z,24.55
2019-01-04T05:22:30.986Z,27.65
2019-01-04T05:25:00.278Z,28.40
2019-01-04T05:27:29.673Z,26.40
2019-01-04T05:29:58.862Z,23.00
2019-01-04T05:32:28.084Z,25.68
2019-01-04T05:34:57.233Z,26.12
2019-01-04T05:37:26.757Z,28.15
2019-01-04T05:39:55.987Z,23.97
2019-01-04T05:42:25.136Z,29.02
2019-01-04T05:44:54.310Z,28.52
2019-01-04T05:47:23.527Z,26.52
2019-01-04T05:49:52.684Z,27.15
2019-01-04T05:52:22.487Z,28.98
2019-01-04T05:54:51.634Z,25.30
2019-01-04T05:57:20.813Z,24.10
2019-01-04T05:59:50.055Z,22.90
2019-01-04T06:02:19.259Z,26.23
2019-01-04T06:04:48.435Z,25.48
2019-01-04T06:07:17.735Z,25.88
2019-01-04T06:09:46.963Z,23.62
2019-01-04T06:12:16.131Z,27.95
2019-01-04T06:14:45.388Z,26.93
2019-01-04T06:17:14.615Z,24.20
2019-01-04T06:19:43.790Z,25.15
2019-01-04T06:22:13.217Z,24.02
2019-01-04T06:24:42.430Z,28.20
2019-01-04T06:27:11.574Z,28.27
2019-01-04T06:29:41.326Z,26.12
2019-01-04T06:32:10.479Z,27.07
2019-01-04T06:34:39.730Z,24.12
2019-01-04T06:37:08.975Z,27.75
2019-01-04T06:39:38.123Z,24.67
2019-01-04T06:42:07.293Z,23.52
2019-01-04T06:44:36.471Z,27.10
2019-01-04T06:47:16.445Z,23.85
2019-01-04T06:49:45.678Z,22.75
2019-01-04T06:52:14.827Z,23.85
2019-01-04T06:55:20.356Z,24.92
2019-01-04T06:57:49.582Z,20.92
2019-01-04T07:00:18.932Z,24.23
2019-01-04T07:02:48.170Z,24.57
2019-01-04T07:05:17.523Z,25.95
2019-01-04T07:07:46.682Z,24.00
2019-01-04T07:10:16.423Z,29.85
2019-01-04T07:12:45.595Z,28.52
2019-01-04T07:15:15.158Z,26.40
2019-01-04T07:17:44.575Z,28.27
2019-01-04T07:20:13.739Z,26.07
2019-01-04T07:22:42.909Z,26.55
2019-01-04T07:25:12.090Z,27.25
2019-01-04T07:27:41.262Z,31.70
2019-01-04T07:30:10.422Z,27.22
2019-01-04T07:32:40.070Z,25.17
2019-01-04T07:35:09.411Z,24.67
2019-01-04T07:37:38.562Z,28.07
2019-01-04T07:40:09.480Z,27.35
2019-01-04T07:42:38.714Z,31.17
2019-01-04T07:45:09.606Z,25.82
2019-01-04T07:47:38.771Z,27.50
2019-01-04T07:50:08.098Z,32.88
2019-01-04T07:52:37.250Z,21.55
2019-01-04T07:55:07.759Z,23.73
2019-01-04T07:57:36.923Z,25.37
2019-01-04T08:00:11.806Z,26.48
2019-01-04T08:02:42.567Z,24.67
2019-01-04T08:05:15.876Z,30.65
2019-01-04T08:07:46.101Z,28.52
2019-01-04T08:10:15.250Z,31.85
2019-01-04T08:12:44.438Z,32.05
2019-01-04T08:15:13.690Z,28.87
2019-01-04T08:17:43.386Z,28.75
2019-01-04T08:20:12.566Z,35.10
2019-01-04T08:22:41.872Z,27.77
2019-01-04T08:25:11.063Z,34.40
2019-01-04T08:27:40.589Z,28.38
2019-01-04T08:30:11.625Z,29.65
2019-01-04T08:32:40.844Z,32.33
2019-01-04T08:35:10.110Z,33.78
2019-01-04T08:37:39.286Z,36.63
2019-01-04T08:40:09.303Z,32.42
2019-01-04T08:42:38.489Z,36.93
2019-01-04T08:45:08.271Z,30.17
2019-01-04T08:47:37.552Z,29.85
2019-01-04T08:50:08.659Z,31.90
2019-01-04T08:52:37.915Z,28.10
2019-01-04T08:55:08.710Z,32.93
2019-01-04T08:57:37.942Z,29.72
2019-01-04T09:00:11.135Z,30.30
2019-01-04T09:02:42.970Z,31.07
2019-01-04T09:05:12.125Z,34.80
2019-01-04T09:07:41.314Z,36.73
2019-01-04T09:10:10.592Z,32.85
2019-01-04T09:12:39.796Z,32.10
2019-01-04T09:15:09.043Z,32.58
2019-01-04T09:17:38.221Z,33.00
2019-01-04T09:20:09.037Z,32.73
2019-01-04T09:22:38.263Z,41.48
2019-01-04T09:25:08.255Z,32.85
2019-01-04T09:27:38.821Z,33.13
2019-01-04T09:30:11.082Z,41.45
2019-01-04T09:32:40.240Z,38.65
2019-01-04T09:35:09.420Z,38.65
2019-01-04T09:37:38.606Z,46.02
2019-01-04T09:40:09.315Z,36.90
2019-01-04T09:42:38.558Z,43.92
2019-01-04T09:45:09.081Z,37.78
2019-01-04T09:47:38.227Z,38.83
2019-01-04T09:50:08.358Z,42.27
2019-01-04T09:52:37.614Z,46.95
2019-01-04T09:55:06.935Z,44.25
2019-01-04T09:57:36.638Z,45.85
2019-01-04T10:00:08.616Z,41.15
2019-01-04T10:02:38.028Z,45.63
2019-01-04T10:05:08.314Z,44.10
2019-01-04T10:07:37.502Z,39.88
2019-01-04T10:10:09.466Z,39.23
2019-01-04T10:12:39.892Z,44.50
2019-01-04T10:15:14.499Z,40.43
2019-01-04T10:17:43.689Z,38.15
2019-01-04T10:20:12.907Z,47.33
2019-01-04T10:22:42.448Z,44.55
2019-01-04T10:25:12.728Z,36.42
2019-01-04T10:27:47.311Z,42.90
2019-01-04T10:30:24.479Z,36.25
2019-01-04T10:32:53.744Z,37.28
2019-01-04T10:35:22.918Z,41.63
2019-01-04T10:37:52.099Z,40.12
2019-01-04T10:40:21.256Z,44.67
2019-01-04T10:42:50.426Z,40.85
2019-01-04T10:45:19.604Z,38.80
2019-01-04T10:47:50.227Z,45.00
2019-01-04T10:50:19.470Z,49.25
2019-01-04T10:52:48.692Z,45.43
2019-01-04T10:55:17.856Z,42.00
2019-01-04T10:57:47.114Z,50.20
2019-01-04T11:00:16.282Z,48.83
2019-01-04T11:02:45.430Z,45.75
2019-01-04T11:05:14.598Z,41.53
2019-01-04T11:07:43.786Z,44.88
2019-01-04T11:10:13.592Z,49.15
2019-01-04T11:12:42.741Z,43.60
2019-01-04T11:15:12.302Z,51.00
2019-01-04T11:17:42.877Z,38.95
2019-01-04T11:20:36.663Z,50.30
2019-01-04T11:23:34.255Z,41.98
2019-01-04T11:26:13.431Z,41.60
2019-01-04T11:29:11.608Z,46.13
2019-01-04T11:31:58.950Z,43.38
2019-01-04T11:34:34.042Z,46.37
2019-01-04T11:37:18.339Z,40.88
2019-01-04T11:40:13.491Z,46.48
2019-01-04T11:42:45.926Z,40.25
2019-01-04T11:45:42.210Z,33.85
2019-01-04T11:48:17.909Z,33.83
2019-01-04T11:50:50.390Z,25.48
2019-01-04T11:53:20.834Z,22.30
2019-01-04T11:55:49.992Z,27.00
2019-01-04T11:58:19.255Z,28.10
2019-01-04T12:00:48.698Z,26.05
2019-01-04T12:03:18.049Z,33.30
2019-01-04T12:05:47.249Z,23.05
2019-01-04T12:08:16.581Z,25.45
2019-01-04T12:10:45.737Z,23.32
2019-01-04T12:13:14.983Z,23.80
2019-01-04T12:15:46.458Z,30.90
2019-01-04T12:18:15.614Z,26.70
2019-01-04T12:20:45.525Z,32.88
2019-01-04T12:23:14.901Z,34.05
2019-01-04T12:25:44.128Z,40.73
2019-01-04T12:28:13.311Z,43.65
2019-01-04T12:30:42.482Z,47.98
2019-01-04T12:33:11.656Z,48.73
2019-01-04T12:35:40.839Z,57.58
2019-01-04T12:38:10.065Z,60.08
2019-01-04T12:40:39.298Z,60.83
2019-01-04T12:43:08.837Z,59.80
2019-01-04T12:45:37.984Z,71.67
2019-01-04T12:48:07.161Z,55.73
2019-01-04T12:50:36.406Z,56.10
2019-01-04T12:53:05.558Z,46.08
2019-01-04T12:55:34.727Z,45.38
2019-01-04T12:58:03.927Z,48.00
2019-01-04T13:00:33.168Z,55.90
2019-01-04T13:03:03.252Z,58.28
2019-01-04T13:05:32.596Z,64.15
2019-01-04T13:08:03.795Z,67.80
2019-01-04T13:10:33.449Z,71.17
2019-01-04T13:13:02.893Z,65.50
2019-01-04T13:15:32.160Z,64.55
2019-01-04T13:18:01.333Z,66.90
2019-01-04T13:20:30.839Z,58.50
2019-01-04T13:23:00.231Z,61.05
2019-01-04T13:25:29.451Z,60.75
2019-01-04T13:27:59.066Z,63.63
2019-01-04T13:30:28.271Z,62.45
2019-01-04T13:32:57.420Z,68.52
2019-01-04T13:35:26.595Z,67.03
2019-01-04T13:37:55.818Z,61.88
2019-01-04T13:40:25.143Z,53.83
2019-01-04T13:42:54.328Z,58.23
2019-01-04T13:45:23.481Z,77.15
2019-01-04T13:47:53.770Z,53.28
2019-01-04T13:50:22.947Z,60.83
2019-01-04T13:52:52.466Z,48.02
2019-01-04T13:55:21.640Z,43.48
2019-01-04T13:57:50.818Z,49.83
2019-01-04T14:00:20.450Z,56.18
2019-01-04T14:02:49.601Z,56.75
2019-01-04T14:05:19.355Z,65.03
2019-01-04T14:07:48.510Z,70.85
2019-01-04T14:10:17.670Z,103.17
2019-01-04T14:12:46.855Z,103.85
2019-01-04T14:15:16.006Z,91.95
2019-01-04T14:17:45.190Z,83.50
2019-01-04T14:20:14.443Z,82.82
2019-01-04T14:22:43.599Z,64.37
2019-01-04T14:25:13.495Z,51.92
2019-01-04T14:27:42.667Z,55.88
2019-01-04T14:30:12.297Z,92.35
2019-01-04T14:32:41.543Z,84.67
2019-01-04T14:35:10.711Z,66.60
2019-01-04T14:37:39.869Z,79.25
2019-01-04T14:40:22.359Z,92.22
2019-01-04T14:42:52.011Z,94.30
2019-01-04T14:45:21.186Z,66.57
2019-01-04T14:47:50.371Z,84.35
2019-01-04T14:50:20.162Z,42.38
2019-01-04T14:52:49.827Z,39.60
2019-01-04T14:55:19.175Z,30.75
2019-01-04T14:57:48.666Z,30.15
2019-01-04T15:00:18.006Z,31.37
2019-01-04T15:02:47.194Z,28.12
2019-01-04T15:05:26.526Z,31.33
2019-01-04T15:07:56.006Z,29.70
2019-01-04T15:10:25.326Z,29.00
2019-01-04T15:12:56.164Z,31.90
2019-01-04T15:15:25.409Z,29.57
2019-01-04T15:17:54.579Z,32.05
2019-01-04T15:20:24.332Z,36.42
2019-01-04T15:22:53.518Z,32.95
2019-01-04T15:25:22.970Z,26.37
2019-01-04T15:27:52.210Z,30.90
2019-01-04T15:30:21.490Z,35.38
2019-01-04T15:32:50.663Z,61.37
2019-01-04T15:35:19.883Z,69.75
2019-01-04T15:37:49.066Z,52.62
2019-01-04T15:40:18.231Z,38.35
2019-01-04T15:42:48.467Z,29.72
2019-01-04T15:45:17.646Z,33.92
2019-01-04T15:47:46.820Z,38.50
2019-01-04T15:50:16.048Z,33.45
2019-01-04T15:52:45.282Z,36.50
2019-01-04T15:55:14.471Z,32.17
2019-01-04T15:57:43.646Z,39.73
2019-01-04T16:00:12.976Z,37.88
2019-01-04T16:02:42.288Z,36.63
2019-01-04T16:05:11.856Z,32.53
2019-01-04T16:07:41.101Z,42.33
2019-01-04T16:10:10.351Z,44.35
2019-01-04T16:12:39.518Z,38.70
2019-01-04T16:15:09.773Z,42.23
2019-01-04T16:17:38.996Z,41.83
2019-01-04T16:20:11.251Z,45.00
2019-01-04T16:22:40.472Z,45.00
2019-01-04T16:25:09.722Z,52.60
2019-01-04T16:27:38.903Z,54.42
2019-01-04T16:30:10.514Z,47.15
2019-01-04T16:32:39.698Z,51.50
2019-01-04T16:35:09.223Z,55.70
2019-01-04T16:37:38.412Z,64.07
2019-01-04T16:40:08.306Z,60.10
2019-01-04T16:42:37.455Z,79.92
2019-01-04T16:45:07.381Z,91.10
2019-01-04T16:47:36.800Z,194.72
2019-01-04T16:50:07.387Z,151.60
2019-01-04T16:52:37.250Z,65.75
2019-01-04T16:55:08.338Z,52.75
2019-01-04T16:57:37.507Z,56.63
2019-01-04T17:00:10.408Z,53.17
2019-01-04T17:02:39.663Z,51.88
2019-01-04T17:05:10.067Z,50.70
2019-01-04T17:07:44.254Z,44.85
2019-01-04T17:10:14.482Z,53.17
2019-01-04T17:12:43.742Z,45.67
2019-01-04T17:15:13.447Z,63.23
2019-01-04T17:17:45.559Z,56.98
2019-01-04T17:20:14.739Z,53.98
2019-01-04T17:22:43.963Z,46.18
2019-01-04T17:25:13.483Z,52.48
2019-01-04T17:27:44.382Z,48.73
2019-01-04T17:30:13.611Z,50.90
2019-01-04T17:32:42.783Z,57.93
2019-01-04T17:35:11.979Z,60.35
2019-01-04T17:37:41.198Z,45.08
2019-01-04T17:40:10.378Z,62.48
2019-01-04T17:42:39.564Z,71.67
2019-01-04T17:45:08.833Z,97.00
2019-01-04T17:47:38.495Z,75.52
2019-01-04T17:50:08.227Z,69.37
2019-01-04T17:52:37.542Z,54.23
2019-01-04T17:55:06.719Z,58.70
2019-01-04T17:57:35.895Z,60.55
2019-01-04T18:00:08.062Z,56.60
2019-01-04T18:02:37.284Z,66.17
2019-01-04T18:05:06.466Z,56.45
2019-01-04T18:07:36.587Z,52.65
2019-01-04T18:10:07.935Z,45.17
2019-01-04T18:12:37.082Z,98.33
2019-01-04T18:15:06.999Z,102.87
2019-01-04T18:17:36.187Z,71.07
2019-01-04T18:20:10.957Z,65.97
2019-01-04T18:22:39.131Z,245.97
2019-01-04T18:25:08.837Z,100.60
2019-01-04T18:27:38.014Z,59.73
2019-01-04T18:30:09.150Z,65.28
2019-01-04T18:32:38.731Z,59.03
2019-01-04T18:35:07.879Z,44.90
2019-01-04T18:37:37.051Z,49.70
2019-01-04T18:40:08.773Z,80.35
2019-01-04T18:42:38.135Z,67.85
2019-01-04T18:45:07.392Z,62.10
2019-01-04T18:47:39.371Z,52.38
2019-01-04T18:50:10.959Z,50.52
2019-01-04T18:52:40.139Z,132.27
2019-01-04T18:55:09.298Z,561.65
2019-01-04T18:57:38.517Z,309.50
2019-01-04T19:00:10.181Z,182.90
2019-01-04T19:02:39.371Z,73.40
2019-01-04T19:05:08.522Z,55.83
2019-01-04T19:07:38.132Z,49.25
2019-01-04T19:10:08.842Z,49.18
2019-01-04T19:12:38.108Z,43.30
2019-01-04T19:15:09.590Z,44.48
2019-01-04T19:17:38.859Z,49.73
2019-01-04T19:20:08.785Z,55.20
2019-01-04T19:22:38.289Z,52.03
2019-01-04T19:25:07.510Z,44.15
2019-01-04T19:27:36.663Z,39.23
2019-01-04T19:30:07.491Z,68.10
2019-01-04T19:32:37.988Z,76.30
2019-01-04T19:35:07.138Z,56.42
2019-01-04T19:37:36.314Z,37.58
2019-01-04T19:40:06.211Z,38.40
2019-01-04T19:42:35.416Z,129.20
2019-01-04T19:45:05.902Z,72.27
2019-01-04T19:47:35.145Z,42.15
2019-01-04T19:50:16.290Z,31.12
2019-01-04T19:52:45.443Z,32.10
2019-01-04T19:55:14.615Z,34.53
2019-01-04T19:57:43.798Z,34.48
2019-01-04T20:00:12.950Z,36.70
2019-01-04T20:02:42.123Z,31.23
2019-01-04T20:05:21.470Z,27.73
2019-01-04T20:08:10.314Z,30.12
2019-01-04T20:11:18.698Z,28.02
2019-01-04T20:14:33.686Z,21.33
2019-01-04T20:17:08.559Z,29.35
2019-01-04T20:19:43.483Z,23.45
2019-01-04T20:22:31.439Z,27.45
2019-01-04T20:25:02.234Z,25.80
2019-01-04T20:27:51.420Z,24.98
2019-01-04T20:30:31.295Z,25.23
2019-01-04T20:33:18.530Z,31.20
2019-01-04T20:36:04.482Z,31.10
2019-01-04T20:38:38.288Z,25.92
2019-01-04T20:41:09.297Z,27.35
2019-01-04T20:43:48.837Z,31.70
2019-01-04T20:46:25.588Z,27.73
2019-01-04T20:49:12.590Z,24.05
2019-01-04T20:51:47.207Z,26.95
2019-01-04T20:54:35.043Z,28.30
2019-01-04T20:57:23.994Z,29.50
2019-01-04T21:00:00.954Z,28.47
2019-01-04T21:02:38.051Z,26.65
2019-01-04T21:05:10.274Z,29.10
2019-01-04T21:07:44.230Z,32.13
2019-01-04T21:10:32.144Z,29.20
2019-01-04T21:13:19.202Z,29.10
2019-01-04T21:16:06.108Z,31.68
2019-01-04T21:18:39.592Z,30.10
2019-01-04T21:21:10.402Z,25.37
2019-01-04T21:23:47.202Z,29.98
2019-01-04T21:26:30.394Z,35.63
2019-01-04T21:29:01.315Z,48.08
2019-01-04T21:31:48.494Z,35.20
2019-01-04T21:34:36.325Z,33.38
2019-01-04T21:37:10.079Z,34.00
2019-01-04T21:39:46.856Z,36.45
2019-01-04T21:42:34.014Z,29.85
2019-01-04T21:45:20.219Z,27.87
2019-01-04T21:48:07.541Z,35.03
2019-01-04T21:50:38.399Z,30.17
2019-01-04T21:53:12.667Z,34.30
2019-01-04T21:55:49.998Z,31.62
2019-01-04T21:58:37.318Z,30.52
2019-01-04T22:01:17.092Z,40.03
2019-01-04T22:04:00.290Z,34.70
2019-01-04T22:06:34.099Z,31.97
2019-01-04T22:09:23.466Z,30.12
2019-01-04T22:12:07.742Z,30.55
2019-01-04T22:14:52.929Z,33.45
2019-01-04T22:17:29.622Z,28.05
2019-01-04T22:20:17.050Z,30.75
2019-01-04T22:22:59.994Z,29.75
2019-01-04T22:25:36.747Z,30.75
2019-01-04T22:28:13.330Z,28.77
2019-01-04T22:30:45.380Z,29.32
2019-01-04T22:33:16.555Z,42.90
2019-01-04T22:36:02.326Z,42.27
2019-01-04T22:38:40.938Z,41.40
2019-01-04T22:41:24.548Z,33.73
2019-01-04T22:44:11.462Z,28.00
2019-01-04T22:46:48.689Z,29.60
2019-01-04T22:49:22.167Z,33.80
2019-01-04T22:52:10.639Z,30.37
2019-01-04T22:54:44.500Z,28.35
2019-01-04T22:57:24.240Z,28.05
2019-01-04T23:00:04.052Z,30.62
2019-01-04T23:02:55.810Z,30.43
2019-01-04T23:05:41.862Z,30.52
2019-01-04T23:08:18.622Z,33.00
2019-01-04T23:11:03.014Z,35.25
2019-01-04T23:13:50.428Z,37.08
2019-01-04T23:16:43.931Z,36.45
2019-01-04T23:19:31.153Z,37.23
2019-01-04T23:22:18.542Z,37.30
2019-01-04T23:25:06.418Z,37.58
2019-01-04T23:27:41.203Z,41.90
2019-01-04T23:30:12.196Z,30.32
2019-01-04T23:32:54.887Z,36.28
2019-01-04T23:35:36.889Z,32.88
2019-01-04T23:38:10.744Z,30.48
2019-01-04T23:40:41.558Z,32.38
2019-01-04T23:43:15.373Z,31.57
2019-01-04T23:45:46.825Z,36.15
2019-01-04T23:48:34.565Z,28.92
2019-01-04T23:51:11.842Z,31.62
2019-01-04T23:53:49.739Z,34.38
2019-01-04T23:56:36.874Z,28.75
2019-01-04T23:59:24.367Z,29.57
